Aeroporto :
LOGIN :

Iscrizione | Disclaimer

   EN    FR    IT 

 










Sommario :    VFR   VFR Marginale   IFR   IFR Intensivo   IFR Molto Intensivo
Visibilità : 
Base nubi : 
>= 8 km
>= 3000ft
5 / 8 km
1000 / 3000 ft
1500m / 5 km
500 / 1000 ft
800 / 1500m
200 / 500 ft
< 800m
< 200 ft
Simboli :   Temporali  Nebbia  Neve Forte  Precipitazioni Forti  Vento > 20 kt
SIGMETs :   Varie  Temporali  Ghiacco  Turbolenza  Onda orograficha  Ceneri Vulcaniche






- Altitudine del aeroporto : 265 ft


LFMC - Le Luc

ULTIMO METAR :
  • 200000Z AUTO 25009KT 220V280 9999 ////// 14/01 Q1011

METARs OBSOLETI :
  • 192330Z AUTO 25009KT 9999 ////// 14/01 Q1011
  • 192300Z AUTO 24011KT 9999 ////// 14/01 Q1011
  • 192230Z AUTO 24010KT 210V270 9999 ////// 14/01 Q1012
  • 192200Z AUTO 24010KT 200V270 9999 ////// 15/01 Q1012
  • 192130Z AUTO 25010KT 210V270 9999 ////// 15/00 Q1012
  • 192100Z AUTO 25013KT 9999 ////// 16/00 Q1012
  • 192030Z AUTO 26017KT 9999 ////// 17/M00 Q1013
  • 192000Z AUTO 27017KT 9999 ////// 17/M01 Q1012
  • 191930Z AUTO 27012KT 9999 ////// 17/M01 Q1012

TAF N/A



MetMap, La meteo Aeronautica in un colpo d'occhio ! - Copyright ORBIFLY Dicembre 2007 - Disclaimer

ORBIFLY MET'MAP TEAM :

Programmazione e sviluppo : Alexandra Zaïnal
Concezione : Baudouin d'Aumeries
Supporto tecnico e logistico : Manuel Goepfert
Aiuto : Marc-Olivier Méhu
Aiuto per la traduzione : Arnaldo La Scala




FONTI E CREDITI :

   NOAA